Time;durP1;ratioP1;P1;durP2;ratioP2;P2;SDS_P1;SDS_P2;PMS_P1;PMS_P2;Temp;Humidity;BMP_temperature;BMP_pressure;BME280_temperature;BME280_humidity;BME280_pressure;Samples;Min_cycle;Max_cycle;Signal;HPM_P1;HPM_P2
2023/01/22 00:02:04;;;;;;;10.10;4.13;;;;;;;6.44;56.80;93902.16;5036589;28;20025;-81
2023/01/22 00:04:30;;;;;;;9.07;3.97;;;;;;;5.73;57.59;93898.78;5035476;28;20347;-81
2023/01/22 00:06:55;;;;;;;10.50;4.10;;;;;;;5.85;59.02;93895.22;5051776;28;20455;-81
2023/01/22 00:09:21;;;;;;;9.65;3.97;;;;;;;5.94;58.55;93898.94;5036558;28;20078;-81
2023/01/22 00:11:50;;;;;;;6.35;3.50;;;;;;;6.78;55.69;93901.03;5040650;28;20030;-81
2023/01/22 00:14:16;;;;;;;7.35;3.50;;;;;;;6.69;56.11;93905.94;5056265;28;20029;-81
2023/01/22 00:16:42;;;;;;;8.55;3.10;;;;;;;6.48;58.54;93907.66;5040483;28;20040;-81
2023/01/22 00:19:08;;;;;;;6.43;3.30;;;;;;;6.08;56.54;93901.94;5039329;28;20025;-81
2023/01/22 00:21:33;;;;;;;10.00;3.67;;;;;;;5.80;57.87;93898.56;5056002;28;20051;-81
2023/01/22 00:23:59;;;;;;;11.55;3.58;;;;;;;6.12;55.85;93895.22;5039214;28;20120;-81
2023/01/22 00:26:25;;;;;;;10.35;3.60;;;;;;;6.11;55.46;93904.06;5040263;28;20108;-81
2023/01/22 00:28:50;;;;;;;8.30;3.03;;;;;;;6.13;54.78;93909.78;5055738;28;20116;-81
2023/01/22 00:31:17;;;;;;;11.80;3.42;;;;;;;6.64;54.40;93903.28;5055932;28;20026;-81
2023/01/22 00:33:43;;;;;;;11.50;4.00;;;;;;;5.70;60.57;93898.50;5039162;28;20521;-81
2023/01/22 00:36:11;;;;;;;10.95;3.80;;;;;;;6.40;55.86;93895.09;5038906;28;20435;-81
2023/01/22 00:38:37;;;;;;;9.20;3.15;;;;;;;6.13;56.37;93912.38;5055678;28;20049;-81
2023/01/22 00:41:03;;;;;;;8.18;3.92;;;;;;;6.43;56.35;93910.19;5055538;28;20489;-81
2023/01/22 00:43:29;;;;;;;8.60;3.67;;;;;;;6.28;56.99;93906.47;5055519;28;20036;-81
2023/01/22 00:45:55;;;;;;;13.38;3.70;;;;;;;6.62;56.13;93919.19;5038627;28;20339;-81
2023/01/22 00:48:20;;;;;;;7.05;3.20;;;;;;;6.12;56.25;93920.44;5038800;28;20381;-81
2023/01/22 00:50:46;;;;;;;6.25;3.38;;;;;;;6.03;56.31;93915.69;5055302;28;20065;-81
2023/01/22 00:53:11;;;;;;;10.68;3.95;;;;;;;5.75;57.24;93909.75;5055558;28;20025;-81
2023/01/22 00:55:36;;;;;;;10.35;3.65;;;;;;;6.28;55.97;93923.91;5055417;28;20033;-81
2023/01/22 00:58:02;;;;;;;7.72;3.25;;;;;;;6.49;56.77;93925.59;5055156;28;20025;-81
2023/01/22 01:00:27;;;;;;;10.07;3.83;;;;;;;6.59;55.32;93918.88;5055151;28;20033;-81
2023/01/22 01:05:39;;;;;;;8.57;4.07;;;;;;;6.49;54.45;93928.19;5052835;28;20032;-81
2023/01/22 01:08:04;;;;;;;12.32;4.25;;;;;;;6.35;53.72;93924.47;5054922;28;20053;-81
2023/01/22 01:10:30;;;;;;;8.05;3.80;;;;;;;5.96;56.42;93935.88;5055036;28;20049;-81
2023/01/22 01:12:55;;;;;;;9.00;3.85;;;;;;;5.66;57.11;93929.41;5055034;28;20025;-82
2023/01/22 01:15:20;;;;;;;15.70;3.78;;;;;;;5.68;56.77;93929.94;5054939;28;20029;-82
2023/01/22 01:17:46;;;;;;;7.05;3.55;;;;;;;6.62;53.83;93934.00;5054649;28;20025;-81
2023/01/22 01:20:12;;;;;;;7.18;3.95;;;;;;;6.53;55.72;93935.50;5054715;28;20350;-81
2023/01/22 01:22:37;;;;;;;13.52;3.90;;;;;;;6.52;54.15;93934.72;5053729;28;20029;-81
2023/01/22 01:25:03;;;;;;;9.25;4.35;;;;;;;5.86;54.10;93938.41;5039303;28;20100;-81
2023/01/22 01:27:30;;;;;;;13.52;4.50;;;;;;;6.03;54.72;93943.50;5054576;28;20316;-81
2023/01/22 01:29:56;;;;;;;7.55;4.25;;;;;;;5.35;57.55;93948.06;5055097;28;20021;-81
2023/01/22 01:32:22;;;;;;;8.30;4.10;;;;;;;6.13;53.96;93940.19;5037886;28;20037;-81
2023/01/22 01:34:48;;;;;;;10.70;4.53;;;;;;;5.90;55.12;93939.50;5039068;28;20036;-81
2023/01/22 01:37:14;;;;;;;8.35;4.18;;;;;;;5.04;57.89;93941.78;5037962;28;20450;-81
2023/01/22 01:39:39;;;;;;;9.05;3.80;;;;;;;5.71;55.41;93942.44;5021400;28;20068;-81
2023/01/22 01:42:05;;;;;;;8.85;4.80;;;;;;;6.38;53.72;93944.00;5054656;28;20036;-81
2023/01/22 01:44:30;;;;;;;8.50;4.10;;;;;;;5.67;54.91;93938.78;5037963;28;20500;-81
2023/01/22 01:47:04;;;;;;;8.80;3.95;;;;;;;6.48;53.39;93946.69;5038753;28;20026;-81
2023/01/22 01:49:58;;;;;;;9.20;4.35;;;;;;;6.71;53.88;93955.13;5054085;28;20346;-81
2023/01/22 01:52:24;;;;;;;10.38;4.50;;;;;;;6.61;54.06;93955.84;5037622;28;20037;-81
2023/01/22 01:54:51;;;;;;;8.75;4.68;;;;;;;6.26;55.50;93963.19;5054231;28;20091;-81
2023/01/22 01:57:20;;;;;;;9.60;4.70;;;;;;;6.12;58.14;93957.63;5037606;28;20083;-81
2023/01/22 01:59:46;;;;;;;9.90;4.70;;;;;;;5.72;59.58;93951.81;5054207;28;20079;-81
2023/01/22 02:02:12;;;;;;;9.15;4.43;;;;;;;6.08;58.36;93959.94;5054351;28;20116;-81
2023/01/22 02:04:38;;;;;;;11.85;4.85;;;;;;;5.99;59.71;93948.38;5053966;28;20029;-81
2023/01/22 02:07:04;;;;;;;14.10;4.75;;;;;;;6.29;59.37;93956.72;5032074;28;20061;-81
2023/01/22 02:09:30;;;;;;;12.88;4.88;;;;;;;5.66;63.81;93952.81;5006381;28;20068;-81
2023/01/22 02:11:55;;;;;;;10.07;5.28;;;;;;;5.31;66.24;93961.81;5001323;28;20068;-81
2023/01/22 02:14:27;;;;;;;13.05;5.47;;;;;;;5.70;67.64;93959.06;5017400;28;20471;-83
2023/01/22 02:17:08;;;;;;;8.27;5.07;;;;;;;5.80;66.77;93959.16;5018323;28;20021;-81
2023/01/22 02:19:34;;;;;;;13.35;6.03;;;;;;;5.45;67.20;93964.81;5000997;28;20025;-81
2023/01/22 02:21:59;;;;;;;12.23;5.47;;;;;;;5.63;67.82;93968.88;5001180;28;20026;-82
2023/01/22 02:24:28;;;;;;;12.05;5.68;;;;;;;4.68;74.95;93955.13;5018470;28;20032;-81
2023/01/22 02:26:54;;;;;;;12.93;5.18;;;;;;;5.70;69.50;93956.47;5000929;28;20055;-81
2023/01/22 02:29:20;;;;;;;11.90;5.32;;;;;;;5.82;69.05;93968.53;5036729;28;20021;-81
2023/01/22 02:31:45;;;;;;;12.00;5.43;;;;;;;5.69;68.84;93965.28;5017082;28;20026;-82
2023/01/22 02:34:11;;;;;;;13.80;5.70;;;;;;;5.37;70.95;93955.63;5016659;28;20096;-82
2023/01/22 02:36:37;;;;;;;10.70;5.38;;;;;;;6.13;68.28;93950.59;5018117;28;20082;-81
2023/01/22 02:39:03;;;;;;;9.20;4.88;;;;;;;6.16;67.29;93948.28;5033501;28;20113;-82
2023/01/22 02:41:28;;;;;;;13.35;5.18;;;;;;;5.96;67.72;93956.69;5018048;28;20120;-81
2023/01/22 02:43:54;;;;;;;13.05;6.47;;;;;;;5.75;70.54;93958.34;5016834;28;20494;-81
2023/01/22 02:46:19;;;;;;;11.93;5.93;;;;;;;5.77;72.86;93958.88;5017931;28;20350;-81
2023/01/22 02:48:45;;;;;;;12.15;5.95;;;;;;;5.04;76.71;93957.38;5000562;28;20040;-81
2023/01/22 02:51:10;;;;;;;13.63;6.90;;;;;;;5.97;71.79;93965.28;5016982;28;20034;-81
2023/01/22 02:53:36;;;;;;;14.27;6.45;;;;;;;5.40;77.36;93962.94;5016734;28;20040;-82
2023/01/22 02:56:06;;;;;;;13.77;6.32;;;;;;;5.24;86.15;93970.56;5016541;28;20120;-81
2023/01/22 02:58:33;;;;;;;12.25;6.53;;;;;;;4.85;90.78;93962.84;5033093;28;20462;-82
2023/01/22 03:01:07;;;;;;;13.85;6.82;;;;;;;5.37;90.67;93966.78;5016578;28;20038;-81
2023/01/22 03:03:33;;;;;;;13.73;6.95;;;;;;;5.17;90.23;93964.78;5017656;28;20044;-81
2023/01/22 03:05:58;;;;;;;12.90;7.15;;;;;;;5.14;91.14;93960.06;5017560;28;20028;-82
2023/01/22 03:08:25;;;;;;;12.82;7.55;;;;;;;5.29;90.70;93956.06;5000329;28;20026;-82
2023/01/22 03:10:56;;;;;;;13.02;7.40;;;;;;;6.23;84.61;93963.69;5017612;28;20075;-82
2023/01/22 03:21:34;;;;;;;11.60;6.95;;;;;;;5.29;90.43;93956.06;5016630;28;20045;-81
2023/01/22 03:23:59;;;;;;;13.88;7.03;;;;;;;5.14;92.39;93959.28;5016242;28;20025;-81
2023/01/22 03:26:27;;;;;;;16.33;7.13;;;;;;;4.70;92.92;93953.06;5017240;28;20037;-81
2023/01/22 03:28:53;;;;;;;13.25;7.38;;;;;;;5.23;92.17;93958.63;5016111;28;20026;-81
2023/01/22 03:31:18;;;;;;;13.50;7.30;;;;;;;4.74;96.31;93968.94;4999680;28;20041;-81
2023/01/22 03:33:44;;;;;;;16.98;7.95;;;;;;;5.23;92.52;93974.19;5015996;28;20108;-81
2023/01/22 03:36:11;;;;;;;16.85;7.75;;;;;;;5.16;95.08;93967.63;5015891;28;20516;-81
2023/01/22 03:38:37;;;;;;;14.10;7.65;;;;;;;4.56;97.87;93965.56;5016005;28;20030;-82
2023/01/22 03:41:12;;;;;;;16.60;7.93;;;;;;;4.79;99.08;93969.78;5015808;28;20056;-82
2023/01/22 03:43:38;;;;;;;15.68;7.38;;;;;;;5.00;95.78;93964.03;5015870;28;20339;-82
2023/01/22 03:46:05;;;;;;;14.35;8.13;;;;;;;5.21;95.04;93975.47;5015370;28;20021;-81
2023/01/22 03:48:31;;;;;;;16.92;7.80;;;;;;;5.56;91.39;93970.88;5016065;28;20026;-81
2023/01/22 03:51:03;;;;;;;16.70;8.00;;;;;;;5.15;94.65;93964.22;4999684;28;20018;-81
2023/01/22 03:53:28;;;;;;;12.60;6.57;;;;;;;4.94;97.12;93960.59;5015705;28;20026;-82
2023/01/22 03:55:58;;;;;;;14.98;7.70;;;;;;;5.56;89.83;93966.50;4999487;28;20080;-81
2023/01/22 03:58:24;;;;;;;11.48;6.90;;;;;;;5.28;90.55;93957.09;4999576;28;20029;-81
2023/01/22 04:00:49;;;;;;;13.18;7.13;;;;;;;4.84;92.40;93961.25;5015669;28;20080;-81
2023/01/22 04:03:15;;;;;;;12.02;6.25;;;;;;;5.44;90.25;93958.03;5015594;28;20029;-82
2023/01/22 04:05:40;;;;;;;12.30;6.95;;;;;;;5.09;90.13;93962.59;4999193;28;20022;-82
2023/01/22 04:08:06;;;;;;;12.85;7.85;;;;;;;5.04;92.32;93958.13;5016699;28;20030;-81
2023/01/22 04:10:31;;;;;;;11.73;7.32;;;;;;;5.41;90.55;93961.13;5016757;28;20025;-81
2023/01/22 04:12:56;;;;;;;14.82;8.20;;;;;;;5.37;89.93;93964.19;5015637;28;20030;-81
2023/01/22 04:15:22;;;;;;;19.10;10.13;;;;;;;5.01;90.64;93956.03;5015593;28;20339;-81
2023/01/22 04:17:47;;;;;;;20.20;11.30;;;;;;;5.22;89.19;93954.44;5031852;28;20026;-81
2023/01/22 04:20:13;;;;;;;23.13;11.93;;;;;;;4.74;91.19;93961.94;5031899;28;20029;-82
2023/01/22 04:22:38;;;;;;;23.23;12.27;;;;;;;4.75;94.53;93960.91;5031932;28;20351;-82
2023/01/22 04:25:04;;;;;;;23.27;13.02;;;;;;;5.28;90.07;93959.69;5031861;28;20387;-81
2023/01/22 04:27:29;;;;;;;24.48;14.15;;;;;;;5.01;91.99;93966.41;5031762;28;20034;-82
2023/01/22 04:29:55;;;;;;;24.80;13.52;;;;;;;5.00;92.97;93966.66;5031894;28;20317;-81
2023/01/22 04:32:20;;;;;;;24.70;13.55;;;;;;;5.16;90.86;93968.38;5031900;28;20378;-82
2023/01/22 04:34:46;;;;;;;22.70;12.50;;;;;;;4.65;93.54;93971.13;5031847;28;20026;-82
2023/01/22 04:37:12;;;;;;;26.00;14.52;;;;;;;4.88;94.67;93961.56;5016466;28;20112;-82
2023/01/22 04:39:44;;;;;;;23.50;11.60;;;;;;;4.79;95.36;93959.38;5031633;28;20030;-82
2023/01/22 04:42:10;;;;;;;20.50;10.60;;;;;;;5.35;90.89;93960.28;5015573;28;20033;-82
2023/01/22 04:44:36;;;;;;;19.17;10.73;;;;;;;5.03;89.83;93968.78;5015285;28;20029;-81
2023/01/22 04:47:01;;;;;;;20.35;11.82;;;;;;;4.50;95.29;93969.91;5031667;28;20030;-81
2023/01/22 04:49:26;;;;;;;21.45;11.48;;;;;;;4.07;99.29;93959.19;5019156;28;20436;-81
2023/01/22 04:51:52;;;;;;;19.48;11.90;;;;;;;4.71;98.42;93967.59;5030022;28;20033;-81
2023/01/22 04:54:18;;;;;;;20.65;11.45;;;;;;;4.73;95.53;93975.94;5000204;28;20033;-81
2023/01/22 04:56:43;;;;;;;19.38;11.52;;;;;;;4.77;97.09;93969.22;5033681;28;20036;-81
2023/01/22 04:59:09;;;;;;;19.65;10.90;;;;;;;5.01;92.15;93976.00;5035384;28;20029;-81
2023/01/22 05:01:35;;;;;;;16.95;9.43;;;;;;;4.80;93.80;93978.34;5019014;28;20084;-81
2023/01/22 05:04:01;;;;;;;18.10;11.00;;;;;;;5.02;92.05;93986.16;5019168;28;20097;-81
2023/01/22 05:06:27;;;;;;;18.83;10.77;;;;;;;4.59;95.36;93982.50;5035027;28;20053;-81
2023/01/22 05:08:52;;;;;;;18.95;10.48;;;;;;;4.48;97.21;93984.16;5035147;28;20034;-81
2023/01/22 05:11:17;;;;;;;19.63;10.30;;;;;;;4.65;94.81;93979.72;5035097;28;20022;-81
2023/01/22 05:13:43;;;;;;;21.52;11.73;;;;;;;4.33;96.16;93977.72;5018819;28;20022;-81
2023/01/22 05:16:08;;;;;;;16.95;9.95;;;;;;;4.09;100.00;93975.28;5034971;28;20026;-81
2023/01/22 05:18:34;;;;;;;14.55;8.80;;;;;;;4.65;96.37;93976.31;5018622;28;20026;-81
2023/01/22 05:20:59;;;;;;;16.77;9.75;;;;;;;4.87;95.50;93980.78;5018616;28;20029;-81
2023/01/22 05:23:24;;;;;;;18.77;10.00;;;;;;;3.85;100.00;93977.25;5034969;28;20022;-81
2023/01/22 05:25:50;;;;;;;11.63;7.15;;;;;;;5.07;92.20;93972.44;5019418;28;20022;-81
2023/01/22 05:28:15;;;;;;;12.60;6.90;;;;;;;4.13;100.00;93982.59;5034832;28;20022;-81
2023/01/22 05:30:41;;;;;;;11.77;7.40;;;;;;;4.80;97.47;93976.53;5018512;28;20025;-81
2023/01/22 05:33:06;;;;;;;13.40;7.18;;;;;;;3.94;99.25;93980.22;5019201;28;20356;-81
2023/01/22 05:35:31;;;;;;;11.70;6.70;;;;;;;4.05;100.00;93981.97;5018099;28;20030;-81
2023/01/22 05:37:57;;;;;;;11.38;6.93;;;;;;;3.86;100.00;93984.00;5019240;28;20343;-82
2023/01/22 05:40:23;;;;;;;6.25;4.38;;;;;;;4.16;100.00;93969.16;5034800;28;20080;-82
2023/01/22 05:42:48;;;;;;;9.70;5.18;;;;;;;3.82;100.00;93972.53;5018163;28;20018;-81
2023/01/22 05:45:14;;;;;;;7.18;4.13;;;;;;;4.61;99.16;93978.63;5034442;28;20051;-82
2023/01/22 05:47:39;;;;;;;7.28;4.30;;;;;;;4.79;96.94;93985.34;5017825;28;20037;-82
2023/01/22 05:50:05;;;;;;;6.93;4.30;;;;;;;4.82;98.22;93986.69;5018114;28;20320;-82
2023/01/22 05:52:30;;;;;;;4.97;3.30;;;;;;;4.55;98.24;93989.97;5034368;28;20025;-82
2023/01/22 05:54:58;;;;;;;6.25;3.70;;;;;;;4.31;100.00;93982.38;5018985;28;20092;-81
2023/01/22 05:57:24;;;;;;;4.65;3.15;;;;;;;4.28;100.00;93984.66;5033783;28;20018;-82
2023/01/22 05:59:49;;;;;;;4.50;3.08;;;;;;;4.10;100.00;93994.25;5018845;28;20044;-82
2023/01/22 06:02:14;;;;;;;5.88;2.20;;;;;;;4.69;100.00;93993.00;5018851;28;20066;-81
2023/01/22 06:04:40;;;;;;;12.90;2.10;;;;;;;4.38;100.00;93990.00;5018823;28;20037;-81
2023/01/22 06:07:05;;;;;;;3.28;2.05;;;;;;;4.38;100.00;93990.00;5018766;28;20041;-81
2023/01/22 06:09:31;;;;;;;2.20;1.50;;;;;;;4.46;100.00;93988.81;5018375;28;20045;-81
2023/01/22 06:11:56;;;;;;;2.78;1.55;;;;;;;4.19;100.00;93981.66;5033965;28;20034;-81
2023/01/22 06:14:21;;;;;;;2.10;1.50;;;;;;;4.13;100.00;93985.97;5033901;28;20038;-81
2023/01/22 06:16:47;;;;;;;2.38;1.60;;;;;;;4.61;100.00;93999.41;5033831;28;20029;-81
2023/01/22 06:19:12;;;;;;;1.58;1.00;;;;;;;3.52;100.00;94015.03;5018552;28;20033;-81
2023/01/22 06:21:38;;;;;;;2.53;1.30;;;;;;;4.52;100.00;94001.63;5017186;28;20450;-81
2023/01/22 06:24:04;;;;;;;1.13;0.82;;;;;;;4.86;100.00;93999.97;5033698;28;20040;-81
2023/01/22 06:26:29;;;;;;;1.35;0.95;;;;;;;4.10;100.00;93997.59;5017308;28;20034;-81
2023/01/22 06:28:54;;;;;;;1.05;0.75;;;;;;;3.98;100.00;93996.88;5017451;28;20034;-81
2023/01/22 06:31:20;;;;;;;1.33;0.75;;;;;;;4.33;100.00;93995.88;5018356;28;20030;-81
2023/01/22 06:33:45;;;;;;;0.98;0.70;;;;;;;3.88;100.00;93986.38;5017255;28;20030;-81
2023/01/22 06:36:11;;;;;;;2.80;0.80;;;;;;;4.35;100.00;93993.84;5033400;28;20037;-81
2023/01/22 06:38:36;;;;;;;0.77;0.60;;;;;;;3.88;100.00;93988.97;5002368;28;20424;-81
2023/01/22 06:41:02;;;;;;;1.63;0.80;;;;;;;4.36;100.00;93992.81;5037845;28;20033;-81
2023/01/22 06:43:28;;;;;;;1.00;0.80;;;;;;;3.73;100.00;93986.88;5036773;28;20119;-82
2023/01/22 06:45:54;;;;;;;1.92;1.00;;;;;;;4.08;100.00;93997.06;5036570;28;20033;-82
2023/01/22 06:48:20;;;;;;;1.35;1.10;;;;;;;3.58;100.00;93988.19;5036571;28;20346;-82
2023/01/22 06:50:45;;;;;;;2.28;1.38;;;;;;;4.50;100.00;93997.69;5036259;28;20037;-81
2023/01/22 06:53:11;;;;;;;2.65;1.08;;;;;;;5.03;100.00;94002.53;5036490;28;20114;-82
2023/01/22 06:55:37;;;;;;;6.05;2.03;;;;;;;5.90;98.26;94013.06;5036509;28;20033;-81
2023/01/22 06:58:02;;;;;;;2.72;1.40;;;;;;;4.92;98.87;94011.97;5036299;28;20087;-81
2023/01/22 07:00:28;;;;;;;2.30;1.38;;;;;;;5.37;96.78;94007.59;5020017;28;20034;-81
2023/01/22 07:02:54;;;;;;;2.05;1.52;;;;;;;4.41;100.00;94017.25;5036302;28;20038;-81
2023/01/22 07:05:20;;;;;;;3.20;2.00;;;;;;;5.36;98.56;94006.78;5036291;28;20087;-81
2023/01/22 07:07:46;;;;;;;3.35;1.80;;;;;;;4.48;100.00;94010.09;5036195;28;20108;-81
2023/01/22 07:10:11;;;;;;;3.28;1.90;;;;;;;4.72;100.00;94026.28;5028160;28;20065;-81
2023/01/22 07:12:37;;;;;;;3.20;1.85;;;;;;;4.92;100.00;94030.94;5016258;28;20064;-81
2023/01/22 07:15:05;;;;;;;2.90;1.98;;;;;;;5.13;100.00;94031.19;5016192;28;20084;-82
2023/01/22 07:17:31;;;;;;;5.32;1.90;;;;;;;4.87;100.00;94032.69;5015478;28;20030;-81
2023/01/22 07:19:56;;;;;;;3.92;1.88;;;;;;;4.48;100.00;94025.66;5037296;28;20049;-82
2023/01/22 07:22:22;;;;;;;4.40;2.20;;;;;;;4.31;100.00;94020.47;5035969;28;20057;-81
2023/01/22 07:24:47;;;;;;;5.38;2.40;;;;;;;4.62;100.00;94020.94;5036077;28;20056;-81
2023/01/22 07:27:13;;;;;;;3.28;1.70;;;;;;;4.39;100.00;94028.66;5036450;28;20044;-81
2023/01/22 07:29:38;;;;;;;3.90;2.25;;;;;;;4.72;100.00;94030.66;5031343;28;20037;-82
2023/01/22 07:32:04;;;;;;;7.32;2.08;;;;;;;3.93;100.00;94026.09;5050124;28;20039;-82
2023/01/22 07:34:29;;;;;;;4.32;2.03;;;;;;;4.47;100.00;94040.44;5039261;28;20418;-82
2023/01/22 07:36:55;;;;;;;3.33;2.10;;;;;;;4.83;100.00;94034.19;5038818;28;20370;-81
2023/01/22 07:39:20;;;;;;;2.63;1.70;;;;;;;5.00;100.00;94036.75;5039133;28;20434;-82
2023/01/22 07:41:46;;;;;;;4.20;2.28;;;;;;;5.06;100.00;94046.19;5055563;28;20072;-82
2023/01/22 07:44:11;;;;;;;6.93;2.03;;;;;;;5.04;100.00;94058.63;5055627;28;20089;-81
2023/01/22 07:46:37;;;;;;;3.88;2.20;;;;;;;4.87;100.00;94053.47;5055331;28;20029;-83
2023/01/22 07:49:04;;;;;;;3.75;2.33;;;;;;;5.16;100.00;94068.91;5055357;28;20102;-82
2023/01/22 07:51:30;;;;;;;4.28;2.35;;;;;;;4.95;100.00;94073.84;5072135;28;20029;-83
2023/01/22 07:53:56;;;;;;;22.35;9.32;;;;;;;4.89;100.00;94080.75;5055576;28;20052;-82
2023/01/22 07:56:21;;;;;;;5.25;2.22;;;;;;;4.32;100.00;94071.31;5008460;28;20192;-82
2023/01/22 07:58:47;;;;;;;3.42;2.08;;;;;;;4.81;100.00;94079.34;5015769;28;20347;-83
2023/01/22 08:01:12;;;;;;;3.60;2.08;;;;;;;5.00;100.00;94079.09;5033583;28;20886;-84
2023/01/22 08:03:41;;;;;;;2.05;1.40;;;;;;;5.36;100.00;94084.75;5035321;28;20034;-83
2023/01/22 08:06:11;;;;;;;3.08;1.70;;;;;;;5.89;100.00;94089.50;5051918;28;20104;-82
2023/01/22 08:08:37;;;;;;;2.53;1.67;;;;;;;5.27;100.00;94095.78;5052100;28;20025;-83
2023/01/22 08:11:03;;;;;;;1.98;1.20;;;;;;;5.09;100.00;94095.03;5036480;28;20029;-83
2023/01/22 08:13:28;;;;;;;1.98;1.30;;;;;;;5.19;100.00;94092.59;5019125;28;20061;-83
2023/01/22 08:15:54;;;;;;;2.97;1.80;;;;;;;5.23;100.00;94108.47;5036357;28;20084;-82
2023/01/22 08:18:20;;;;;;;4.40;1.70;;;;;;;6.02;99.79;94103.97;5051842;28;20445;-83
2023/01/22 08:20:46;;;;;;;2.78;1.45;;;;;;;5.60;100.00;94096.72;5036389;28;20439;-83
2023/01/22 08:23:11;;;;;;;3.00;1.60;;;;;;;5.20;100.00;94098.56;5051758;28;20040;-83
2023/01/22 08:25:37;;;;;;;2.22;1.60;;;;;;;5.76;100.00;94101.06;5023551;28;20053;-83
2023/01/22 08:28:03;;;;;;;2.03;1.20;;;;;;;6.10;100.00;94107.16;5033926;28;20052;-81
2023/01/22 08:30:30;;;;;;;1.50;1.13;;;;;;;5.85;100.00;94101.44;5036644;28;20021;-81
2023/01/22 08:32:55;;;;;;;1.73;1.17;;;;;;;5.96;100.00;94114.53;5055568;28;20427;-81
2023/01/22 08:35:21;;;;;;;2.70;1.20;;;;;;;6.55;97.14;94118.25;5022850;28;20056;-81
2023/01/22 08:37:46;;;;;;;2.35;1.73;;;;;;;5.76;100.00;94126.28;5016380;28;20116;-81
2023/01/22 08:40:12;;;;;;;2.75;1.92;;;;;;;6.25;99.96;94129.97;5047264;28;20036;-84
2023/01/22 08:42:39;;;;;;;2.80;1.63;;;;;;;5.88;100.00;94133.94;5075616;28;20029;-82
2023/01/22 08:45:06;;;;;;;2.95;2.15;;;;;;;6.04;100.00;94147.94;5058850;28;20323;-81
2023/01/22 08:47:31;;;;;;;1.88;1.52;;;;;;;6.01;99.36;94149.19;5058423;28;20429;-81
2023/01/22 08:49:56;;;;;;;3.83;2.25;;;;;;;6.31;96.19;94142.78;5059906;28;20078;-81
2023/01/22 08:52:22;;;;;;;3.88;2.15;;;;;;;5.41;100.00;94146.38;5059699;28;20389;-81
2023/01/22 08:54:51;;;;;;;2.97;2.20;;;;;;;6.47;98.11;94155.94;5058879;28;20040;-81
2023/01/22 08:57:17;;;;;;;3.05;2.25;;;;;;;5.99;100.00;94166.06;5059388;28;20072;-81
2023/01/22 08:59:42;;;;;;;3.47;2.40;;;;;;;6.23;100.00;94171.81;5059574;28;20064;-81
2023/01/22 09:02:12;;;;;;;3.10;2.30;;;;;;;6.03;100.00;94172.38;5075388;28;20078;-82
2023/01/22 09:04:40;;;;;;;2.85;2.03;;;;;;;6.12;100.00;94173.53;5058530;28;20052;-82
2023/01/22 09:07:07;;;;;;;3.25;2.40;;;;;;;5.71;100.00;94165.97;5058243;28;20029;-82
2023/01/22 09:09:33;;;;;;;3.88;2.60;;;;;;;6.36;100.00;94186.25;5042032;28;20036;-82
2023/01/22 09:11:58;;;;;;;4.30;2.75;;;;;;;6.25;96.42;94180.16;5041976;28;20025;-82
2023/01/22 09:14:24;;;;;;;3.45;2.53;;;;;;;6.31;97.01;94194.81;5058090;28;20033;-84
2023/01/22 09:16:49;;;;;;;3.78;2.53;;;;;;;5.77;100.00;94178.03;5048481;28;20029;-83
2023/01/22 09:19:14;;;;;;;4.15;2.85;;;;;;;6.19;100.00;94178.53;5038296;28;20037;-83
2023/01/22 09:21:40;;;;;;;4.47;3.10;;;;;;;5.97;100.00;94179.31;5038072;28;20063;-82
2023/01/22 09:24:06;;;;;;;7.25;4.28;;;;;;;5.64;100.00;94186.19;5038422;28;20029;-82
2023/01/22 09:26:31;;;;;;;6.50;4.13;;;;;;;5.56;100.00;94171.00;5037691;28;20033;-82
2023/01/22 09:29:02;;;;;;;6.93;4.40;;;;;;;5.78;100.00;94177.00;5038186;28;20033;-82
2023/01/22 09:31:28;;;;;;;5.10;3.83;;;;;;;4.73;100.00;94185.34;5037957;28;20026;-82
2023/01/22 09:33:54;;;;;;;6.30;4.18;;;;;;;5.73;100.00;94184.72;5038469;28;20029;-82
2023/01/22 09:36:20;;;;;;;6.80;4.70;;;;;;;6.76;99.67;94184.31;5038118;28;20068;-82
2023/01/22 09:38:45;;;;;;;5.43;3.42;;;;;;;5.79;100.00;94188.19;5021535;28;20032;-83
2023/01/22 09:41:23;;;;;;;5.03;3.00;;;;;;;7.04;100.00;94182.44;5037867;28;20037;-83
2023/01/22 09:43:55;;;;;;;3.78;2.75;;;;;;;6.47;100.00;94185.31;5037950;28;20127;-82
2023/01/22 09:46:35;;;;;;;3.65;2.55;;;;;;;6.45;100.00;94192.59;5053965;28;20037;-82
2023/01/22 09:49:07;;;;;;;4.03;2.42;;;;;;;6.75;100.00;94211.38;5021674;28;20029;-83
2023/01/22 09:51:34;;;;;;;3.63;2.45;;;;;;;6.11;100.00;94210.19;5038342;28;20025;-83
2023/01/22 09:54:02;;;;;;;13.02;7.00;;;;;;;7.02;100.00;94213.16;5037635;28;20025;-82
2023/01/22 09:56:34;;;;;;;3.03;2.05;;;;;;;6.87;100.00;94211.97;5037551;28;20031;-81
2023/01/22 09:59:02;;;;;;;2.70;2.10;;;;;;;6.43;100.00;94225.91;5037638;28;20029;-82
2023/01/22 10:01:28;;;;;;;3.08;2.28;;;;;;;6.68;100.00;94214.19;5037469;28;20522;-82
2023/01/22 10:03:59;;;;;;;3.38;2.38;;;;;;;7.28;100.00;94223.78;5037740;28;20435;-82
2023/01/22 10:06:24;;;;;;;3.35;2.35;;;;;;;7.71;100.00;94223.81;5037381;28;20025;-81
2023/01/22 10:09:06;;;;;;;4.47;2.90;;;;;;;8.22;100.00;94223.25;5037614;28;20036;-82
2023/01/22 10:11:31;;;;;;;6.93;2.55;;;;;;;6.83;100.00;94213.50;5038587;28;20454;-82
2023/01/22 10:13:59;;;;;;;1.73;0.77;;;;;;;7.99;100.00;94212.19;5037227;28;20029;-81
2023/01/22 10:16:25;;;;;;;1.27;0.77;;;;;;;7.48;100.00;94210.91;5037201;28;20419;-80
2023/01/22 10:18:59;;;;;;;1.00;0.85;;;;;;;7.75;98.92;94217.03;5037218;28;20033;-81
2023/01/22 10:21:26;;;;;;;0.40;0.40;;;;;;;6.19;100.00;94223.53;5037077;28;20037;-82
2023/01/22 10:23:54;;;;;;;0.28;0.28;;;;;;;7.44;100.00;94220.22;5035871;28;20025;-81
2023/01/22 10:26:35;;;;;;;0.40;0.35;;;;;;;7.60;100.00;94218.53;5017049;28;20112;-82
2023/01/22 10:29:06;;;;;;;0.38;0.38;;;;;;;8.03;100.00;94226.31;5018352;28;20363;-82
2023/01/22 10:31:35;;;;;;;0.68;0.60;;;;;;;7.78;100.00;94225.16;5000757;28;20030;-82
2023/01/22 10:34:15;;;;;;;0.75;0.75;;;;;;;7.60;100.00;94228.16;5001292;28;20038;-83
2023/01/22 10:36:48;;;;;;;1.27;0.98;;;;;;;7.76;100.00;94223.81;5000882;28;20128;-83
2023/01/22 10:39:14;;;;;;;1.00;0.75;;;;;;;7.11;100.00;94236.94;5017027;28;20029;-83
2023/01/22 10:41:41;;;;;;;1.27;0.90;;;;;;;7.90;100.00;94230.16;5000727;28;20042;-83
2023/01/22 10:44:19;;;;;;;0.90;0.80;;;;;;;7.72;100.00;94227.97;5001044;28;20037;-83
2023/01/22 10:46:49;;;;;;;0.52;0.52;;;;;;;7.12;100.00;94228.09;5007454;28;20029;-82
2023/01/22 10:49:26;;;;;;;1.08;0.95;;;;;;;7.17;100.00;94234.13;5036559;28;20026;-82
2023/01/22 10:51:52;;;;;;;0.70;0.68;;;;;;;7.06;100.00;94225.44;5020401;28;20033;-82
2023/01/22 10:54:27;;;;;;;1.17;0.80;;;;;;;8.11;100.00;94225.06;5036520;28;20462;-83
2023/01/22 10:57:03;;;;;;;10.02;4.65;;;;;;;7.89;100.00;94227.78;5037519;28;20056;-83
2023/01/22 10:59:29;;;;;;;7.43;3.45;;;;;;;7.71;100.00;94224.56;5019976;28;20037;-83
2023/01/22 11:02:20;;;;;;;64.03;26.20;;;;;;;8.09;100.00;94226.34;5037377;28;20052;-83
2023/01/22 11:04:48;;;;;;;2.83;1.23;;;;;;;7.31;100.00;94225.88;5052743;28;20026;-83
2023/01/22 11:07:26;;;;;;;2.45;0.90;;;;;;;6.65;100.00;94231.06;5036057;28;20091;-83
2023/01/22 11:10:05;;;;;;;13.30;5.93;;;;;;;7.39;100.00;94228.03;5036426;28;20041;-84
2023/01/22 11:12:39;;;;;;;133.57;63.17;;;;;;;8.27;100.00;94230.34;5019910;28;20029;-83
2023/01/22 11:15:08;;;;;;;38.42;19.02;;;;;;;8.07;99.12;94222.16;5036337;28;20056;-83
2023/01/22 11:17:39;;;;;;;0.80;0.70;;;;;;;8.15;100.00;94231.31;5037200;28;20105;-83
2023/01/22 11:20:15;;;;;;;1.23;0.95;;;;;;;7.93;100.00;94227.03;5035955;28;20120;-83
2023/01/22 11:22:44;;;;;;;1.08;0.70;;;;;;;7.42;100.00;94227.53;5037404;28;20029;-83
2023/01/22 11:25:11;;;;;;;1.05;0.90;;;;;;;6.85;100.00;94232.28;5035952;28;20103;-83
2023/01/22 11:28:00;;;;;;;1.35;0.93;;;;;;;7.67;100.00;94233.16;5036922;28;20125;-83
2023/01/22 11:30:45;;;;;;;12.50;5.82;;;;;;;7.19;100.00;94237.28;5035637;28;20426;-82
2023/01/22 11:33:16;;;;;;;4.38;2.17;;;;;;;7.53;100.00;94238.81;5036923;28;20040;-82
2023/01/22 11:35:53;;;;;;;1.95;1.30;;;;;;;7.65;100.00;94225.59;5036080;28;20041;-82
2023/01/22 11:38:27;;;;;;;6.32;3.63;;;;;;;8.09;100.00;94227.09;5035780;28;20091;-82
2023/01/22 11:40:59;;;;;;;15.27;7.07;;;;;;;7.85;100.00;94235.34;5036885;28;20041;-82
2023/01/22 11:43:35;;;;;;;3.05;1.60;;;;;;;8.15;100.00;94236.53;5036892;28;20107;-82
2023/01/22 11:46:10;;;;;;;2.13;1.38;;;;;;;7.95;100.00;94232.00;5033589;28;20056;-82